sensor_id;sensor_type;location;lat;lon;timestamp;P1;durP1;ratioP1;P2;durP2;ratioP2
75793;SDS011;64418;47.536;19.074;2024-01-15T00:00:16;38.00;;;16.33;;
75793;SDS011;64418;47.536;19.074;2024-01-15T00:02:45;46.15;;;18.40;;
75793;SDS011;64418;47.536;19.074;2024-01-15T00:05:15;35.13;;;16.60;;
75793;SDS011;64418;47.536;19.074;2024-01-15T00:07:41;34.20;;;16.50;;
75793;SDS011;64418;47.536;19.074;2024-01-15T00:10:07;40.22;;;17.50;;
75793;SDS011;64418;47.536;19.074;2024-01-15T00:12:34;38.58;;;17.65;;
75793;SDS011;64418;47.536;19.074;2024-01-15T00:15:00;38.65;;;17.48;;
75793;SDS011;64418;47.536;19.074;2024-01-15T00:17:27;39.78;;;17.25;;
75793;SDS011;64418;47.536;19.074;2024-01-15T00:19:53;42.63;;;17.07;;
75793;SDS011;64418;47.536;19.074;2024-01-15T00:22:33;37.95;;;17.83;;
75793;SDS011;64418;47.536;19.074;2024-01-15T00:25:09;38.42;;;16.52;;
75793;SDS011;64418;47.536;19.074;2024-01-15T00:27:36;42.30;;;18.73;;
75793;SDS011;64418;47.536;19.074;2024-01-15T00:30:03;38.33;;;17.58;;
75793;SDS011;64418;47.536;19.074;2024-01-15T00:32:30;40.97;;;17.53;;
75793;SDS011;64418;47.536;19.074;2024-01-15T00:34:56;35.22;;;16.48;;
75793;SDS011;64418;47.536;19.074;2024-01-15T00:37:34;38.60;;;18.42;;
75793;SDS011;64418;47.536;19.074;2024-01-15T00:40:04;38.22;;;16.95;;
75793;SDS011;64418;47.536;19.074;2024-01-15T00:42:31;38.85;;;17.65;;
75793;SDS011;64418;47.536;19.074;2024-01-15T00:44:58;37.13;;;17.77;;
75793;SDS011;64418;47.536;19.074;2024-01-15T00:47:24;45.40;;;18.08;;
75793;SDS011;64418;47.536;19.074;2024-01-15T00:49:52;38.05;;;17.70;;
75793;SDS011;64418;47.536;19.074;2024-01-15T00:52:22;39.05;;;16.90;;
75793;SDS011;64418;47.536;19.074;2024-01-15T00:55:00;35.55;;;16.48;;
75793;SDS011;64418;47.536;19.074;2024-01-15T00:57:27;37.47;;;17.07;;
75793;SDS011;64418;47.536;19.074;2024-01-15T00:59:54;35.90;;;17.27;;
75793;SDS011;64418;47.536;19.074;2024-01-15T01:02:21;37.40;;;17.98;;
75793;SDS011;64418;47.536;19.074;2024-01-15T01:04:52;36.65;;;16.90;;
75793;SDS011;64418;47.536;19.074;2024-01-15T01:07:18;41.17;;;18.90;;
75793;SDS011;64418;47.536;19.074;2024-01-15T01:09:45;33.63;;;15.52;;
75793;SDS011;64418;47.536;19.074;2024-01-15T01:12:14;40.97;;;17.17;;
75793;SDS011;64418;47.536;19.074;2024-01-15T01:14:44;39.30;;;17.87;;
75793;SDS011;64418;47.536;19.074;2024-01-15T01:17:10;35.38;;;16.80;;
75793;SDS011;64418;47.536;19.074;2024-01-15T01:19:36;39.50;;;17.23;;
75793;SDS011;64418;47.536;19.074;2024-01-15T01:22:02;37.90;;;18.60;;
75793;SDS011;64418;47.536;19.074;2024-01-15T01:24:29;36.28;;;16.87;;
75793;SDS011;64418;47.536;19.074;2024-01-15T01:26:55;38.15;;;17.52;;
75793;SDS011;64418;47.536;19.074;2024-01-15T01:29:29;35.58;;;17.48;;
75793;SDS011;64418;47.536;19.074;2024-01-15T01:31:56;41.67;;;18.00;;
75793;SDS011;64418;47.536;19.074;2024-01-15T01:34:22;39.85;;;17.52;;
75793;SDS011;64418;47.536;19.074;2024-01-15T01:36:48;36.88;;;16.48;;
75793;SDS011;64418;47.536;19.074;2024-01-15T01:39:19;37.97;;;17.62;;
75793;SDS011;64418;47.536;19.074;2024-01-15T01:41:46;42.30;;;18.85;;
75793;SDS011;64418;47.536;19.074;2024-01-15T01:44:12;41.47;;;17.57;;
75793;SDS011;64418;47.536;19.074;2024-01-15T01:46:43;38.78;;;17.48;;
75793;SDS011;64418;47.536;19.074;2024-01-15T01:49:10;39.72;;;17.77;;
75793;SDS011;64418;47.536;19.074;2024-01-15T01:51:37;40.67;;;18.52;;
75793;SDS011;64418;47.536;19.074;2024-01-15T01:54:05;37.47;;;17.20;;
75793;SDS011;64418;47.536;19.074;2024-01-15T01:56:33;35.73;;;17.97;;
75793;SDS011;64418;47.536;19.074;2024-01-15T01:59:00;36.72;;;17.08;;
75793;SDS011;64418;47.536;19.074;2024-01-15T02:01:31;38.28;;;17.58;;
75793;SDS011;64418;47.536;19.074;2024-01-15T02:04:02;41.83;;;18.73;;
75793;SDS011;64418;47.536;19.074;2024-01-15T02:06:29;39.25;;;17.10;;
75793;SDS011;64418;47.536;19.074;2024-01-15T02:08:56;42.20;;;19.07;;
75793;SDS011;64418;47.536;19.074;2024-01-15T02:11:22;42.40;;;18.70;;
75793;SDS011;64418;47.536;19.074;2024-01-15T02:13:51;41.53;;;19.10;;
75793;SDS011;64418;47.536;19.074;2024-01-15T02:16:20;36.08;;;18.10;;
75793;SDS011;64418;47.536;19.074;2024-01-15T02:18:47;38.05;;;18.27;;
75793;SDS011;64418;47.536;19.074;2024-01-15T02:21:15;43.37;;;19.27;;
75793;SDS011;64418;47.536;19.074;2024-01-15T02:23:46;45.38;;;19.08;;
75793;SDS011;64418;47.536;19.074;2024-01-15T02:26:15;41.37;;;18.70;;
75793;SDS011;64418;47.536;19.074;2024-01-15T02:28:43;44.35;;;18.23;;
75793;SDS011;64418;47.536;19.074;2024-01-15T02:31:09;42.92;;;19.20;;
75793;SDS011;64418;47.536;19.074;2024-01-15T02:33:35;40.80;;;18.87;;
75793;SDS011;64418;47.536;19.074;2024-01-15T02:36:01;42.28;;;18.85;;
75793;SDS011;64418;47.536;19.074;2024-01-15T02:38:28;39.25;;;18.50;;
75793;SDS011;64418;47.536;19.074;2024-01-15T02:40:58;41.60;;;19.30;;
75793;SDS011;64418;47.536;19.074;2024-01-15T02:43:26;39.47;;;19.73;;
75793;SDS011;64418;47.536;19.074;2024-01-15T02:45:53;40.43;;;19.03;;
75793;SDS011;64418;47.536;19.074;2024-01-15T02:48:19;40.97;;;18.95;;
75793;SDS011;64418;47.536;19.074;2024-01-15T02:50:50;43.83;;;20.58;;
75793;SDS011;64418;47.536;19.074;2024-01-15T02:53:16;42.55;;;20.30;;
75793;SDS011;64418;47.536;19.074;2024-01-15T02:55:43;46.50;;;19.58;;
75793;SDS011;64418;47.536;19.074;2024-01-15T02:58:10;40.40;;;19.27;;
75793;SDS011;64418;47.536;19.074;2024-01-15T03:00:37;39.78;;;19.40;;
75793;SDS011;64418;47.536;19.074;2024-01-15T03:03:04;48.40;;;19.30;;
75793;SDS011;64418;47.536;19.074;2024-01-15T03:05:31;40.67;;;18.75;;
75793;SDS011;64418;47.536;19.074;2024-01-15T03:07:57;42.17;;;19.12;;
75793;SDS011;64418;47.536;19.074;2024-01-15T03:10:23;43.00;;;19.87;;
75793;SDS011;64418;47.536;19.074;2024-01-15T03:12:49;40.75;;;19.40;;
75793;SDS011;64418;47.536;19.074;2024-01-15T03:15:17;40.15;;;18.62;;
75793;SDS011;64418;47.536;19.074;2024-01-15T03:17:45;43.13;;;19.25;;
75793;SDS011;64418;47.536;19.074;2024-01-15T03:20:11;37.80;;;18.45;;
75793;SDS011;64418;47.536;19.074;2024-01-15T03:22:38;44.83;;;19.67;;
75793;SDS011;64418;47.536;19.074;2024-01-15T03:25:04;46.37;;;20.65;;
75793;SDS011;64418;47.536;19.074;2024-01-15T03:27:35;47.75;;;20.23;;
75793;SDS011;64418;47.536;19.074;2024-01-15T03:30:01;45.65;;;20.95;;
75793;SDS011;64418;47.536;19.074;2024-01-15T03:32:29;48.10;;;20.62;;
75793;SDS011;64418;47.536;19.074;2024-01-15T03:34:59;43.90;;;20.23;;
75793;SDS011;64418;47.536;19.074;2024-01-15T03:37:25;40.38;;;19.65;;
75793;SDS011;64418;47.536;19.074;2024-01-15T03:39:51;47.72;;;20.92;;
75793;SDS011;64418;47.536;19.074;2024-01-15T03:42:17;49.70;;;21.20;;
75793;SDS011;64418;47.536;19.074;2024-01-15T03:44:44;46.60;;;20.73;;
75793;SDS011;64418;47.536;19.074;2024-01-15T03:47:10;41.87;;;17.93;;
75793;SDS011;64418;47.536;19.074;2024-01-15T03:49:41;40.47;;;18.65;;
75793;SDS011;64418;47.536;19.074;2024-01-15T03:52:09;49.30;;;21.00;;
75793;SDS011;64418;47.536;19.074;2024-01-15T03:54:35;45.05;;;22.02;;
75793;SDS011;64418;47.536;19.074;2024-01-15T03:57:01;49.78;;;20.42;;
75793;SDS011;64418;47.536;19.074;2024-01-15T03:59:28;51.77;;;20.40;;
75793;SDS011;64418;47.536;19.074;2024-01-15T04:01:54;49.28;;;21.62;;
75793;SDS011;64418;47.536;19.074;2024-01-15T04:04:20;47.22;;;21.80;;
75793;SDS011;64418;47.536;19.074;2024-01-15T04:06:53;49.40;;;21.77;;
75793;SDS011;64418;47.536;19.074;2024-01-15T04:09:18;47.10;;;21.13;;
75793;SDS011;64418;47.536;19.074;2024-01-15T04:11:44;50.60;;;22.67;;
75793;SDS011;64418;47.536;19.074;2024-01-15T04:14:11;49.95;;;22.60;;
75793;SDS011;64418;47.536;19.074;2024-01-15T04:16:37;47.13;;;20.53;;
75793;SDS011;64418;47.536;19.074;2024-01-15T04:19:03;49.00;;;20.42;;
75793;SDS011;64418;47.536;19.074;2024-01-15T04:21:29;50.00;;;21.12;;
75793;SDS011;64418;47.536;19.074;2024-01-15T04:23:57;46.42;;;21.67;;
75793;SDS011;64418;47.536;19.074;2024-01-15T04:26:23;45.15;;;20.48;;
75793;SDS011;64418;47.536;19.074;2024-01-15T04:28:49;52.07;;;21.87;;
75793;SDS011;64418;47.536;19.074;2024-01-15T04:31:22;50.12;;;20.90;;
75793;SDS011;64418;47.536;19.074;2024-01-15T04:33:52;51.78;;;21.33;;
75793;SDS011;64418;47.536;19.074;2024-01-15T04:36:21;46.42;;;21.30;;
75793;SDS011;64418;47.536;19.074;2024-01-15T04:38:47;48.58;;;20.58;;
75793;SDS011;64418;47.536;19.074;2024-01-15T04:41:15;41.57;;;19.57;;
75793;SDS011;64418;47.536;19.074;2024-01-15T04:43:43;47.50;;;20.45;;
75793;SDS011;64418;47.536;19.074;2024-01-15T04:46:09;48.67;;;21.75;;
75793;SDS011;64418;47.536;19.074;2024-01-15T04:48:35;51.35;;;20.50;;
75793;SDS011;64418;47.536;19.074;2024-01-15T04:51:04;50.88;;;21.40;;
75793;SDS011;64418;47.536;19.074;2024-01-15T04:53:34;48.53;;;21.17;;
75793;SDS011;64418;47.536;19.074;2024-01-15T04:56:01;51.05;;;21.23;;
75793;SDS011;64418;47.536;19.074;2024-01-15T04:58:31;47.15;;;21.00;;
75793;SDS011;64418;47.536;19.074;2024-01-15T05:00:57;47.53;;;20.67;;
75793;SDS011;64418;47.536;19.074;2024-01-15T05:03:24;52.83;;;22.60;;
75793;SDS011;64418;47.536;19.074;2024-01-15T05:05:52;44.93;;;19.03;;
75793;SDS011;64418;47.536;19.074;2024-01-15T05:08:19;53.00;;;21.92;;
75793;SDS011;64418;47.536;19.074;2024-01-15T05:10:47;55.65;;;22.15;;
75793;SDS011;64418;47.536;19.074;2024-01-15T05:13:13;47.25;;;20.35;;
75793;SDS011;64418;47.536;19.074;2024-01-15T05:15:49;50.03;;;21.20;;
75793;SDS011;64418;47.536;19.074;2024-01-15T05:18:17;51.90;;;21.80;;
75793;SDS011;64418;47.536;19.074;2024-01-15T05:20:48;51.13;;;21.92;;
75793;SDS011;64418;47.536;19.074;2024-01-15T05:23:15;50.67;;;22.13;;
75793;SDS011;64418;47.536;19.074;2024-01-15T05:25:42;54.70;;;23.08;;
75793;SDS011;64418;47.536;19.074;2024-01-15T05:28:09;55.85;;;23.12;;
75793;SDS011;64418;47.536;19.074;2024-01-15T05:30:35;58.70;;;21.93;;
75793;SDS011;64418;47.536;19.074;2024-01-15T05:33:06;57.88;;;23.08;;
75793;SDS011;64418;47.536;19.074;2024-01-15T05:35:35;54.63;;;22.33;;
75793;SDS011;64418;47.536;19.074;2024-01-15T05:38:02;55.95;;;23.05;;
75793;SDS011;64418;47.536;19.074;2024-01-15T05:40:29;53.45;;;22.90;;
75793;SDS011;64418;47.536;19.074;2024-01-15T05:42:56;57.37;;;23.40;;
75793;SDS011;64418;47.536;19.074;2024-01-15T05:45:22;50.17;;;22.87;;
75793;SDS011;64418;47.536;19.074;2024-01-15T05:47:48;58.67;;;23.20;;
75793;SDS011;64418;47.536;19.074;2024-01-15T05:50:16;52.00;;;23.07;;
75793;SDS011;64418;47.536;19.074;2024-01-15T05:52:47;54.15;;;23.30;;
75793;SDS011;64418;47.536;19.074;2024-01-15T05:55:29;52.45;;;23.77;;
75793;SDS011;64418;47.536;19.074;2024-01-15T05:57:55;50.97;;;21.83;;
75793;SDS011;64418;47.536;19.074;2024-01-15T06:00:22;51.90;;;22.75;;
75793;SDS011;64418;47.536;19.074;2024-01-15T06:02:48;49.10;;;21.60;;
75793;SDS011;64418;47.536;19.074;2024-01-15T06:05:19;47.35;;;20.95;;
75793;SDS011;64418;47.536;19.074;2024-01-15T06:07:48;56.37;;;22.70;;
75793;SDS011;64418;47.536;19.074;2024-01-15T06:10:14;54.85;;;23.10;;
75793;SDS011;64418;47.536;19.074;2024-01-15T06:12:40;49.80;;;23.35;;
75793;SDS011;64418;47.536;19.074;2024-01-15T06:15:08;52.00;;;22.50;;
75793;SDS011;64418;47.536;19.074;2024-01-15T06:17:34;51.47;;;22.80;;
75793;SDS011;64418;47.536;19.074;2024-01-15T06:20:00;52.03;;;24.73;;
75793;SDS011;64418;47.536;19.074;2024-01-15T06:22:27;56.90;;;23.00;;
75793;SDS011;64418;47.536;19.074;2024-01-15T06:24:54;62.20;;;24.80;;
75793;SDS011;64418;47.536;19.074;2024-01-15T06:27:20;49.77;;;23.33;;
75793;SDS011;64418;47.536;19.074;2024-01-15T06:29:46;56.42;;;24.08;;
75793;SDS011;64418;47.536;19.074;2024-01-15T06:32:12;50.70;;;22.40;;
75793;SDS011;64418;47.536;19.074;2024-01-15T06:34:38;46.90;;;22.10;;
75793;SDS011;64418;47.536;19.074;2024-01-15T06:37:04;58.60;;;23.13;;
75793;SDS011;64418;47.536;19.074;2024-01-15T06:39:32;59.00;;;23.77;;
75793;SDS011;64418;47.536;19.074;2024-01-15T06:41:59;57.88;;;25.25;;
75793;SDS011;64418;47.536;19.074;2024-01-15T06:44:32;55.78;;;25.15;;
75793;SDS011;64418;47.536;19.074;2024-01-15T06:46:58;54.87;;;23.43;;
75793;SDS011;64418;47.536;19.074;2024-01-15T06:49:24;57.10;;;25.73;;
75793;SDS011;64418;47.536;19.074;2024-01-15T06:51:50;50.22;;;23.77;;
75793;SDS011;64418;47.536;19.074;2024-01-15T06:54:16;54.40;;;23.93;;
75793;SDS011;64418;47.536;19.074;2024-01-15T06:56:51;48.58;;;22.70;;
75793;SDS011;64418;47.536;19.074;2024-01-15T06:59:17;56.95;;;24.48;;
75793;SDS011;64418;47.536;19.074;2024-01-15T07:01:42;49.25;;;23.42;;
75793;SDS011;64418;47.536;19.074;2024-01-15T07:04:08;46.60;;;22.10;;
75793;SDS011;64418;47.536;19.074;2024-01-15T07:06:34;54.15;;;23.75;;
75793;SDS011;64418;47.536;19.074;2024-01-15T07:09:00;50.58;;;22.27;;
75793;SDS011;64418;47.536;19.074;2024-01-15T07:11:26;48.97;;;22.95;;
75793;SDS011;64418;47.536;19.074;2024-01-15T07:13:53;46.93;;;21.30;;
75793;SDS011;64418;47.536;19.074;2024-01-15T07:16:19;50.28;;;22.92;;
75793;SDS011;64418;47.536;19.074;2024-01-15T07:18:45;56.03;;;23.10;;
75793;SDS011;64418;47.536;19.074;2024-01-15T07:21:11;50.33;;;20.45;;
75793;SDS011;64418;47.536;19.074;2024-01-15T07:23:37;46.17;;;19.85;;
75793;SDS011;64418;47.536;19.074;2024-01-15T07:26:06;49.35;;;23.12;;
75793;SDS011;64418;47.536;19.074;2024-01-15T07:28:32;54.07;;;24.60;;
75793;SDS011;64418;47.536;19.074;2024-01-15T07:30:59;62.72;;;27.27;;
75793;SDS011;64418;47.536;19.074;2024-01-15T07:33:25;45.80;;;21.10;;
75793;SDS011;64418;47.536;19.074;2024-01-15T07:35:51;54.58;;;24.05;;
75793;SDS011;64418;47.536;19.074;2024-01-15T07:38:17;42.00;;;19.50;;
75793;SDS011;64418;47.536;19.074;2024-01-15T07:40:43;60.10;;;26.20;;
75793;SDS011;64418;47.536;19.074;2024-01-15T07:43:09;49.80;;;23.27;;
75793;SDS011;64418;47.536;19.074;2024-01-15T07:45:35;59.83;;;25.33;;
75793;SDS011;64418;47.536;19.074;2024-01-15T07:48:03;53.00;;;23.35;;
75793;SDS011;64418;47.536;19.074;2024-01-15T07:50:29;54.25;;;24.83;;
75793;SDS011;64418;47.536;19.074;2024-01-15T07:52:56;59.88;;;26.98;;
75793;SDS011;64418;47.536;19.074;2024-01-15T07:55:21;52.80;;;22.90;;
75793;SDS011;64418;47.536;19.074;2024-01-15T07:57:47;53.80;;;24.00;;
75793;SDS011;64418;47.536;19.074;2024-01-15T08:00:13;55.15;;;26.08;;
75793;SDS011;64418;47.536;19.074;2024-01-15T08:02:40;57.33;;;25.50;;
75793;SDS011;64418;47.536;19.074;2024-01-15T08:05:07;56.37;;;28.45;;
75793;SDS011;64418;47.536;19.074;2024-01-15T08:07:33;56.60;;;25.13;;
75793;SDS011;64418;47.536;19.074;2024-01-15T08:09:59;58.97;;;27.77;;
75793;SDS011;64418;47.536;19.074;2024-01-15T08:12:25;51.58;;;24.25;;
75793;SDS011;64418;47.536;19.074;2024-01-15T08:14:51;51.37;;;24.83;;
75793;SDS011;64418;47.536;19.074;2024-01-15T08:17:17;34.80;;;16.90;;
75793;SDS011;64418;47.536;19.074;2024-01-15T08:19:43;32.13;;;15.65;;
75793;SDS011;64418;47.536;19.074;2024-01-15T08:22:11;26.98;;;13.43;;
75793;SDS011;64418;47.536;19.074;2024-01-15T08:24:36;30.23;;;13.07;;
75793;SDS011;64418;47.536;19.074;2024-01-15T08:27:03;22.48;;;11.75;;
75793;SDS011;64418;47.536;19.074;2024-01-15T08:29:29;25.98;;;12.15;;
75793;SDS011;64418;47.536;19.074;2024-01-15T08:31:55;16.37;;;8.23;;
75793;SDS011;64418;47.536;19.074;2024-01-15T08:34:24;23.10;;;11.40;;
75793;SDS011;64418;47.536;19.074;2024-01-15T08:36:50;22.83;;;11.00;;
75793;SDS011;64418;47.536;19.074;2024-01-15T08:39:17;23.35;;;11.45;;
75793;SDS011;64418;47.536;19.074;2024-01-15T08:41:44;25.60;;;11.88;;
75793;SDS011;64418;47.536;19.074;2024-01-15T08:44:13;18.30;;;8.70;;
75793;SDS011;64418;47.536;19.074;2024-01-15T08:46:40;19.58;;;10.75;;
75793;SDS011;64418;47.536;19.074;2024-01-15T08:49:05;21.35;;;10.95;;
75793;SDS011;64418;47.536;19.074;2024-01-15T08:51:32;20.58;;;10.98;;
75793;SDS011;64418;47.536;19.074;2024-01-15T08:53:58;21.62;;;10.25;;
75793;SDS011;64418;47.536;19.074;2024-01-15T08:56:26;22.63;;;12.00;;
75793;SDS011;64418;47.536;19.074;2024-01-15T08:58:52;17.58;;;9.73;;
75793;SDS011;64418;47.536;19.074;2024-01-15T09:01:17;24.40;;;11.12;;
75793;SDS011;64418;47.536;19.074;2024-01-15T09:03:43;17.98;;;9.23;;
75793;SDS011;64418;47.536;19.074;2024-01-15T09:06:10;21.95;;;10.63;;
75793;SDS011;64418;47.536;19.074;2024-01-15T09:08:36;14.80;;;7.70;;
75793;SDS011;64418;47.536;19.074;2024-01-15T09:11:02;22.52;;;9.90;;
75793;SDS011;64418;47.536;19.074;2024-01-15T09:13:30;18.42;;;10.35;;
75793;SDS011;64418;47.536;19.074;2024-01-15T09:15:58;19.02;;;9.82;;
75793;SDS011;64418;47.536;19.074;2024-01-15T09:18:24;17.30;;;8.73;;
75793;SDS011;64418;47.536;19.074;2024-01-15T09:20:51;19.83;;;10.50;;
75793;SDS011;64418;47.536;19.074;2024-01-15T09:23:17;16.83;;;9.20;;
75793;SDS011;64418;47.536;19.074;2024-01-15T09:25:43;16.48;;;9.60;;
75793;SDS011;64418;47.536;19.074;2024-01-15T09:28:10;17.37;;;9.13;;
75793;SDS011;64418;47.536;19.074;2024-01-15T09:30:37;15.03;;;7.77;;
75793;SDS011;64418;47.536;19.074;2024-01-15T09:33:03;24.23;;;9.07;;
75793;SDS011;64418;47.536;19.074;2024-01-15T09:35:30;13.93;;;8.07;;
75793;SDS011;64418;47.536;19.074;2024-01-15T09:37:56;17.95;;;9.13;;
75793;SDS011;64418;47.536;19.074;2024-01-15T09:40:22;15.27;;;7.82;;
75793;SDS011;64418;47.536;19.074;2024-01-15T09:42:53;13.75;;;7.82;;
75793;SDS011;64418;47.536;19.074;2024-01-15T09:45:20;16.40;;;7.43;;
75793;SDS011;64418;47.536;19.074;2024-01-15T09:47:48;13.93;;;7.60;;
75793;SDS011;64418;47.536;19.074;2024-01-15T09:50:14;13.57;;;7.90;;
75793;SDS011;64418;47.536;19.074;2024-01-15T09:52:40;13.93;;;7.15;;
75793;SDS011;64418;47.536;19.074;2024-01-15T09:55:07;11.48;;;6.22;;
75793;SDS011;64418;47.536;19.074;2024-01-15T09:57:35;13.50;;;7.63;;
75793;SDS011;64418;47.536;19.074;2024-01-15T10:00:02;15.20;;;6.78;;
75793;SDS011;64418;47.536;19.074;2024-01-15T10:02:29;13.18;;;5.72;;
75793;SDS011;64418;47.536;19.074;2024-01-15T10:04:58;14.10;;;6.68;;
75793;SDS011;64418;47.536;19.074;2024-01-15T10:07:24;9.85;;;6.18;;
75793;SDS011;64418;47.536;19.074;2024-01-15T10:09:53;14.00;;;6.67;;
75793;SDS011;64418;47.536;19.074;2024-01-15T10:12:20;11.80;;;5.85;;
75793;SDS011;64418;47.536;19.074;2024-01-15T10:14:47;11.98;;;5.78;;
75793;SDS011;64418;47.536;19.074;2024-01-15T10:17:13;10.95;;;6.07;;
75793;SDS011;64418;47.536;19.074;2024-01-15T10:19:39;8.90;;;4.95;;
75793;SDS011;64418;47.536;19.074;2024-01-15T10:22:06;8.10;;;4.60;;
75793;SDS011;64418;47.536;19.074;2024-01-15T10:24:32;10.85;;;5.25;;
75793;SDS011;64418;47.536;19.074;2024-01-15T10:27:04;10.40;;;5.72;;
75793;SDS011;64418;47.536;19.074;2024-01-15T10:29:35;12.15;;;5.53;;
75793;SDS011;64418;47.536;19.074;2024-01-15T10:32:02;10.50;;;5.32;;
75793;SDS011;64418;47.536;19.074;2024-01-15T10:34:30;13.30;;;5.40;;
75793;SDS011;64418;47.536;19.074;2024-01-15T10:36:56;13.23;;;5.78;;
75793;SDS011;64418;47.536;19.074;2024-01-15T10:39:24;9.90;;;5.22;;
75793;SDS011;64418;47.536;19.074;2024-01-15T10:41:50;10.75;;;5.40;;
75793;SDS011;64418;47.536;19.074;2024-01-15T10:44:17;9.45;;;5.40;;
75793;SDS011;64418;47.536;19.074;2024-01-15T10:46:43;11.27;;;5.73;;
75793;SDS011;64418;47.536;19.074;2024-01-15T10:49:10;11.18;;;5.70;;
75793;SDS011;64418;47.536;19.074;2024-01-15T10:51:37;10.93;;;6.93;;
75793;SDS011;64418;47.536;19.074;2024-01-15T10:54:04;16.00;;;8.38;;
75793;SDS011;64418;47.536;19.074;2024-01-15T10:56:31;11.85;;;6.65;;
75793;SDS011;64418;47.536;19.074;2024-01-15T10:58:58;8.63;;;4.80;;
75793;SDS011;64418;47.536;19.074;2024-01-15T11:01:24;8.05;;;4.37;;
75793;SDS011;64418;47.536;19.074;2024-01-15T11:03:51;9.60;;;4.72;;
75793;SDS011;64418;47.536;19.074;2024-01-15T11:06:19;11.95;;;4.75;;
75793;SDS011;64418;47.536;19.074;2024-01-15T11:08:49;11.12;;;3.87;;
75793;SDS011;64418;47.536;19.074;2024-01-15T11:11:16;8.90;;;4.23;;
75793;SDS011;64418;47.536;19.074;2024-01-15T11:13:45;9.40;;;4.47;;
75793;SDS011;64418;47.536;19.074;2024-01-15T11:16:13;7.07;;;4.10;;
75793;SDS011;64418;47.536;19.074;2024-01-15T11:18:40;8.60;;;4.18;;
75793;SDS011;64418;47.536;19.074;2024-01-15T11:21:19;7.68;;;4.45;;
75793;SDS011;64418;47.536;19.074;2024-01-15T11:23:52;8.33;;;4.60;;
75793;SDS011;64418;47.536;19.074;2024-01-15T11:26:26;9.05;;;4.10;;
75793;SDS011;64418;47.536;19.074;2024-01-15T11:28:55;10.40;;;4.55;;
75793;SDS011;64418;47.536;19.074;2024-01-15T11:31:26;14.43;;;6.68;;
75793;SDS011;64418;47.536;19.074;2024-01-15T11:33:53;10.95;;;4.70;;
75793;SDS011;64418;47.536;19.074;2024-01-15T11:36:19;10.53;;;5.00;;
75793;SDS011;64418;47.536;19.074;2024-01-15T11:38:46;7.12;;;4.03;;
75793;SDS011;64418;47.536;19.074;2024-01-15T11:41:13;6.00;;;3.55;;
75793;SDS011;64418;47.536;19.074;2024-01-15T11:43:40;7.15;;;3.90;;
75793;SDS011;64418;47.536;19.074;2024-01-15T11:46:11;5.67;;;3.63;;
75793;SDS011;64418;47.536;19.074;2024-01-15T11:48:42;7.18;;;3.42;;
75793;SDS011;64418;47.536;19.074;2024-01-15T11:51:09;8.27;;;3.42;;
75793;SDS011;64418;47.536;19.074;2024-01-15T11:53:40;7.43;;;3.15;;
75793;SDS011;64418;47.536;19.074;2024-01-15T11:56:12;6.22;;;3.22;;
75793;SDS011;64418;47.536;19.074;2024-01-15T11:58:41;6.37;;;3.00;;
75793;SDS011;64418;47.536;19.074;2024-01-15T12:01:08;9.00;;;3.78;;
75793;SDS011;64418;47.536;19.074;2024-01-15T12:03:36;6.80;;;3.22;;
75793;SDS011;64418;47.536;19.074;2024-01-15T12:06:05;5.07;;;3.03;;
75793;SDS011;64418;47.536;19.074;2024-01-15T12:08:34;6.78;;;2.90;;
75793;SDS011;64418;47.536;19.074;2024-01-15T12:11:00;9.77;;;3.70;;
75793;SDS011;64418;47.536;19.074;2024-01-15T12:13:35;8.55;;;3.30;;
75793;SDS011;64418;47.536;19.074;2024-01-15T12:16:02;7.15;;;3.30;;
75793;SDS011;64418;47.536;19.074;2024-01-15T12:18:30;6.07;;;3.17;;
75793;SDS011;64418;47.536;19.074;2024-01-15T12:20:57;6.00;;;3.35;;
75793;SDS011;64418;47.536;19.074;2024-01-15T12:23:24;7.53;;;3.80;;
75793;SDS011;64418;47.536;19.074;2024-01-15T12:25:51;5.47;;;3.22;;
75793;SDS011;64418;47.536;19.074;2024-01-15T12:28:17;7.05;;;3.25;;
75793;SDS011;64418;47.536;19.074;2024-01-15T12:30:46;3.95;;;2.67;;
75793;SDS011;64418;47.536;19.074;2024-01-15T12:33:12;6.60;;;3.45;;
75793;SDS011;64418;47.536;19.074;2024-01-15T12:35:39;9.43;;;3.37;;
75793;SDS011;64418;47.536;19.074;2024-01-15T12:38:05;5.80;;;3.05;;
75793;SDS011;64418;47.536;19.074;2024-01-15T12:40:32;7.15;;;3.15;;
75793;SDS011;64418;47.536;19.074;2024-01-15T12:42:58;7.30;;;3.67;;
75793;SDS011;64418;47.536;19.074;2024-01-15T12:45:24;7.45;;;3.55;;
75793;SDS011;64418;47.536;19.074;2024-01-15T12:47:52;9.27;;;3.80;;
75793;SDS011;64418;47.536;19.074;2024-01-15T12:50:18;5.47;;;2.95;;
75793;SDS011;64418;47.536;19.074;2024-01-15T12:52:46;7.40;;;3.40;;
75793;SDS011;64418;47.536;19.074;2024-01-15T12:55:13;12.82;;;3.92;;
75793;SDS011;64418;47.536;19.074;2024-01-15T12:57:39;7.12;;;3.03;;
75793;SDS011;64418;47.536;19.074;2024-01-15T13:00:05;7.37;;;3.10;;
75793;SDS011;64418;47.536;19.074;2024-01-15T13:02:32;7.40;;;3.12;;
75793;SDS011;64418;47.536;19.074;2024-01-15T13:04:58;6.43;;;3.45;;
75793;SDS011;64418;47.536;19.074;2024-01-15T13:07:24;4.65;;;2.90;;
75793;SDS011;64418;47.536;19.074;2024-01-15T13:09:51;8.23;;;3.50;;
75793;SDS011;64418;47.536;19.074;2024-01-15T13:12:17;6.30;;;3.83;;
75793;SDS011;64418;47.536;19.074;2024-01-15T13:14:43;9.05;;;3.92;;
75793;SDS011;64418;47.536;19.074;2024-01-15T13:17:09;7.53;;;2.90;;
75793;SDS011;64418;47.536;19.074;2024-01-15T13:19:34;8.25;;;3.03;;
75793;SDS011;64418;47.536;19.074;2024-01-15T13:22:00;5.40;;;3.30;;
75793;SDS011;64418;47.536;19.074;2024-01-15T13:24:29;5.73;;;3.20;;
75793;SDS011;64418;47.536;19.074;2024-01-15T13:26:57;8.07;;;3.42;;
75793;SDS011;64418;47.536;19.074;2024-01-15T13:29:23;6.72;;;3.35;;
75793;SDS011;64418;47.536;19.074;2024-01-15T13:31:49;5.80;;;3.20;;
75793;SDS011;64418;47.536;19.074;2024-01-15T13:34:20;8.07;;;3.08;;
75793;SDS011;64418;47.536;19.074;2024-01-15T13:36:46;6.63;;;2.57;;
75793;SDS011;64418;47.536;19.074;2024-01-15T13:39:15;6.47;;;3.30;;
75793;SDS011;64418;47.536;19.074;2024-01-15T13:41:43;5.87;;;3.05;;
75793;SDS011;64418;47.536;19.074;2024-01-15T13:44:11;5.80;;;2.92;;
75793;SDS011;64418;47.536;19.074;2024-01-15T13:46:37;9.00;;;3.40;;
75793;SDS011;64418;47.536;19.074;2024-01-15T13:49:04;8.00;;;3.47;;
75793;SDS011;64418;47.536;19.074;2024-01-15T13:51:30;5.60;;;2.42;;
75793;SDS011;64418;47.536;19.074;2024-01-15T13:53:57;8.38;;;2.78;;
75793;SDS011;64418;47.536;19.074;2024-01-15T13:56:23;6.12;;;2.80;;
75793;SDS011;64418;47.536;19.074;2024-01-15T13:58:49;7.35;;;2.58;;
75793;SDS011;64418;47.536;19.074;2024-01-15T14:01:17;10.03;;;3.93;;
75793;SDS011;64418;47.536;19.074;2024-01-15T14:03:43;6.12;;;2.62;;
75793;SDS011;64418;47.536;19.074;2024-01-15T14:06:10;7.90;;;3.72;;
75793;SDS011;64418;47.536;19.074;2024-01-15T14:08:37;5.70;;;2.83;;
75793;SDS011;64418;47.536;19.074;2024-01-15T14:11:04;5.63;;;3.10;;
75793;SDS011;64418;47.536;19.074;2024-01-15T14:13:30;5.25;;;2.60;;
75793;SDS011;64418;47.536;19.074;2024-01-15T14:15:56;6.72;;;3.10;;